Impacts TAF Board
For situational awareness. Not to be used for flight planning purposes.
IDs:

KGEG - Spokane Intl, WA, US

Issued at 1138 UTC 16 Sep 2019
Updated at 1204 UTC 16 Sep 2019
Potential Impact None Slight Moderate High
Time1153Z 16/13Z 16/14Z 16/15Z 16/16Z 16/17Z 16/18Z 16/19Z 16/20Z 16/21Z 16/22Z 16/23Z 17/00Z 17/01Z>>
Type OBS PRVL PRVL PRVL PRVL PRVL PRVL PRVL PRVL PRVL PRVL PRVL PRVL PRVL
VIS 10 >6 >6 >6 >6 >6 >6 >6 >6 >6 >6 >6 >6 >6
CIG 75 40 40 40 40 35 35 35 25 25 25 25 25 30
Cover OVC OVC OVC OVC OVC OVC OVC OVC OVC OVC OVC OVC OVC OVC
FltCat VFR VFR VFR VFR VFR VFR VFR VFR MVFR MVFR MVFR MVFR MVFR MVFR
WX -- VCSH VCSH VCSH VCSH -RA -RA -RA -SHRA -SHRA -SHRA -SHRA -SHRA --
WDir 200 210 210 210 210 220 220 220 220 220 220 220 220 210
WSpd 6 6 6 6 6 7 7 7 7 7 7 7 7 6
WGst -- -- -- -- -- -- -- -- -- -- -- -- -- --
Raw TAF
KGEG 161138Z 1612/1712 21006KT P6SM VCSH BKN040 OVC070
  FM161700 22007KT P6SM -RA BKN035 OVC060
  FM162000 22007KT P6SM -SHRA BKN025 OVC050
  FM170100 21006KT P6SM BKN030 OVC150
  FM170400 18007KT P6SM SCT030 BKN080


Raw METAR
KGEG 161153Z 20006KT 10SM FEW065 OVC075 13/07 A2979 RMK AO2 SLP078 T01280067 10156 20128 53003
KGEG 161053Z 22006KT 10SM FEW060 BKN080 OVC095 13/06 A2978 RMK AO2 SLP075 T01330061
KGEG 160953Z 21005KT 10SM FEW080 BKN095 BKN110 14/06 A2978 RMK AO2 SLP073 T01390061

METAR Board
Radar Display
Forecast Discussion
For situational awareness. Not to be used for flight planning purposes.